Time;durP1;ratioP1;P1;durP2;ratioP2;P2;SDS_P1;SDS_P2;PMS_P1;PMS_P2;Temp;Humidity;BMP_temperature;BMP_pressure;BME280_temperature;BME280_humidity;BME280_pressure;Samples;Min_cycle;Max_cycle;Signal;HPM_P1;HPM_P2
2023/09/19 00:02:16;;;;;;;9.55;8.00;;;;;;;20.87;64.81;99679.91;5024918;28;20247;-60
2023/09/19 00:04:44;;;;;;;9.70;7.35;;;;;;;20.87;64.62;99666.81;5030740;28;20206;-59
2023/09/19 00:07:13;;;;;;;8.68;7.78;;;;;;;20.86;64.92;99668.56;5030919;28;20203;-61
2023/09/19 00:09:44;;;;;;;8.30;7.38;;;;;;;20.87;64.71;99669.41;5030647;28;20396;-60
2023/09/19 00:12:13;;;;;;;10.30;7.47;;;;;;;20.85;64.70;99666.06;5031766;28;20210;-60
2023/09/19 00:14:41;;;;;;;10.02;7.85;;;;;;;20.83;64.80;99673.16;5035778;28;20210;-60
2023/09/19 00:17:09;;;;;;;9.55;7.57;;;;;;;20.83;64.82;99665.31;5027651;28;20206;-63
2023/09/19 00:19:38;;;;;;;9.30;8.38;;;;;;;20.83;64.86;99673.16;5025324;28;20206;-61
2023/09/19 00:22:07;;;;;;;10.93;7.95;;;;;;;20.84;64.78;99669.59;5029326;28;20245;-62
2023/09/19 00:24:35;;;;;;;9.63;7.95;;;;;;;20.84;64.65;99669.59;5029150;28;20203;-60
2023/09/19 00:27:03;;;;;;;10.10;7.57;;;;;;;20.85;64.66;99672.13;5026890;28;20305;-60
2023/09/19 00:29:31;;;;;;;12.20;7.72;;;;;;;20.84;64.82;99674.84;5023855;28;20214;-59
2023/09/19 00:32:00;;;;;;;9.38;7.47;;;;;;;20.84;64.86;99660.00;5027412;28;20225;-59
2023/09/19 00:34:29;;;;;;;11.27;8.10;;;;;;;20.86;64.63;99667.75;5029405;28;20669;-60
2023/09/19 00:36:59;;;;;;;9.82;7.93;;;;;;;20.81;64.78;99662.78;5028903;28;20298;-60
2023/09/19 00:39:31;;;;;;;10.57;8.23;;;;;;;20.78;64.95;99656.88;5029712;28;20256;-61
2023/09/19 00:42:04;;;;;;;9.38;7.85;;;;;;;20.75;64.99;99658.75;5025064;28;20208;-60
2023/09/19 00:44:34;;;;;;;10.73;8.23;;;;;;;20.71;65.01;99652.00;5029455;28;20210;-61
2023/09/19 00:47:03;;;;;;;10.27;8.45;;;;;;;20.70;65.10;99652.94;5029514;28;20588;-63
2023/09/19 00:49:32;;;;;;;9.20;7.95;;;;;;;20.71;65.15;99656.41;5023731;28;20250;-62
2023/09/19 00:52:04;;;;;;;11.60;8.05;;;;;;;20.68;65.16;99653.97;5025315;28;20210;-61
2023/09/19 00:54:33;;;;;;;8.75;7.95;;;;;;;20.60;65.43;99657.03;5028768;28;20209;-60
2023/09/19 00:57:01;;;;;;;8.95;8.05;;;;;;;20.55;65.74;99643.41;5029779;28;20230;-60
2023/09/19 00:59:30;;;;;;;13.00;8.70;;;;;;;20.54;65.43;99652.16;5029317;28;20764;-60
2023/09/19 01:02:00;;;;;;;10.77;8.25;;;;;;;20.53;65.91;99655.72;5027489;28;20221;-63
2023/09/19 01:04:28;;;;;;;8.90;8.00;;;;;;;20.55;65.99;99648.63;5022899;28;20203;-61
2023/09/19 01:06:57;;;;;;;11.43;8.57;;;;;;;20.56;65.86;99641.63;5025802;28;20630;-60
2023/09/19 01:09:27;;;;;;;9.75;7.95;;;;;;;20.60;65.76;99641.34;5028477;28;20623;-61
2023/09/19 01:12:02;;;;;;;11.77;8.43;;;;;;;20.58;65.70;99639.72;5022207;28;20614;-60
2023/09/19 01:14:35;;;;;;;10.00;8.38;;;;;;;20.58;65.60;99635.34;5026031;28;20946;-60
2023/09/19 01:17:10;;;;;;;10.88;7.90;;;;;;;20.58;65.75;99621.41;5021728;28;20583;-62
2023/09/19 01:20:11;;;;;;;12.20;8.40;;;;;;;20.54;65.66;99631.22;5027868;28;20778;-61
2023/09/19 01:22:57;;;;;;;9.60;7.93;;;;;;;20.51;65.68;99620.97;5028301;28;20285;-62
2023/09/19 01:25:56;;;;;;;12.85;8.85;;;;;;;20.49;65.56;99622.78;5026068;28;20203;-61
2023/09/19 01:28:36;;;;;;;11.23;8.90;;;;;;;20.48;65.69;99615.88;5025958;28;20217;-62
2023/09/19 01:31:11;;;;;;;9.40;7.95;;;;;;;20.45;65.66;99614.25;5027451;28;20195;-61
2023/09/19 01:33:59;;;;;;;11.65;8.60;;;;;;;20.45;66.06;99605.56;5024095;28;20213;-61
2023/09/19 01:36:30;;;;;;;10.15;8.23;;;;;;;20.45;65.92;99614.25;5030323;28;20210;-60
2023/09/19 01:39:05;;;;;;;9.95;8.55;;;;;;;20.46;65.93;99609.88;5027239;28;20204;-64
2023/09/19 01:41:49;;;;;;;11.45;8.73;;;;;;;20.49;66.02;99613.19;5031760;28;20656;-62
2023/09/19 01:44:25;;;;;;;9.77;8.52;;;;;;;20.49;65.83;99605.31;5030533;28;20198;-61
2023/09/19 01:46:59;;;;;;;10.70;8.35;;;;;;;20.49;65.66;99607.06;5033321;28;20212;-61
2023/09/19 01:49:35;;;;;;;9.95;8.05;;;;;;;20.46;65.67;99604.63;5030705;28;20677;-61
2023/09/19 01:52:13;;;;;;;8.27;7.47;;;;;;;20.45;65.75;99600.34;5027558;28;20198;-61
2023/09/19 01:54:47;;;;;;;10.52;8.63;;;;;;;20.42;65.77;99593.50;5024820;28;20223;-60
2023/09/19 01:57:22;;;;;;;10.38;8.43;;;;;;;20.42;65.79;99590.06;5023751;28;20254;-61
2023/09/19 01:59:56;;;;;;;9.10;8.18;;;;;;;20.35;65.69;99589.56;5027413;28;20202;-62
2023/09/19 02:02:26;;;;;;;11.15;8.95;;;;;;;20.36;65.89;99591.28;5028921;28;20300;-60
2023/09/19 02:04:56;;;;;;;9.60;7.82;;;;;;;20.36;65.77;99587.78;5030459;28;20240;-60
2023/09/19 02:07:24;;;;;;;9.55;7.85;;;;;;;20.37;65.88;99589.50;5029990;28;20737;-60
2023/09/19 02:09:52;;;;;;;9.15;8.25;;;;;;;20.38;66.01;99593.78;5030229;28;20693;-61
2023/09/19 02:12:20;;;;;;;11.77;8.85;;;;;;;20.32;65.73;99588.91;5019824;28;20234;-60
2023/09/19 02:14:48;;;;;;;9.52;8.48;;;;;;;20.36;65.78;99590.41;5033839;28;20205;-60
2023/09/19 02:17:17;;;;;;;9.63;8.63;;;;;;;20.37;65.81;99589.50;5030769;28;20203;-60
2023/09/19 02:19:46;;;;;;;10.15;8.60;;;;;;;20.40;65.71;99586.66;5033878;28;20234;-60
2023/09/19 02:22:16;;;;;;;12.35;8.35;;;;;;;20.39;65.61;99583.22;5030993;28;20219;-60
2023/09/19 02:24:45;;;;;;;9.00;7.60;;;;;;;20.37;65.43;99581.66;5038077;28;20202;-61
2023/09/19 02:27:15;;;;;;;11.02;8.23;;;;;;;20.31;65.73;99577.59;5031010;28;20230;-61
2023/09/19 02:29:43;;;;;;;13.98;8.77;;;;;;;20.27;65.95;99571.72;5033206;28;20244;-61
2023/09/19 02:32:11;;;;;;;10.40;8.35;;;;;;;20.24;66.15;99577.13;5029950;28;20299;-60
2023/09/19 02:34:40;;;;;;;10.38;8.48;;;;;;;20.21;66.23;99561.63;5026068;28;20701;-63
2023/09/19 02:37:09;;;;;;;9.35;8.10;;;;;;;20.19;66.12;99562.63;5028179;28;20202;-60
2023/09/19 02:39:37;;;;;;;10.07;8.98;;;;;;;20.14;66.55;99557.69;5030827;28;20841;-61
2023/09/19 02:42:05;;;;;;;9.70;7.78;;;;;;;20.08;66.50;99554.59;5028245;28;20290;-60
2023/09/19 02:44:33;;;;;;;9.55;8.55;;;;;;;20.04;66.78;99559.16;5030531;28;20665;-63
2023/09/19 02:47:01;;;;;;;9.85;8.20;;;;;;;20.01;66.99;99564.56;5030997;28;20233;-60
2023/09/19 02:49:30;;;;;;;10.98;8.80;;;;;;;19.99;66.92;99564.66;5029605;28;20223;-61
2023/09/19 02:51:58;;;;;;;9.75;8.50;;;;;;;20.00;66.89;99550.63;5030705;28;20221;-61
2023/09/19 02:54:28;;;;;;;11.60;9.38;;;;;;;19.98;66.85;99556.88;5028453;28;20203;-61
2023/09/19 02:56:55;;;;;;;12.27;8.90;;;;;;;19.95;67.19;99554.44;5029012;28;20238;-59
2023/09/19 02:59:24;;;;;;;10.82;9.18;;;;;;;19.96;67.19;99554.38;5031050;28;20719;-62
2023/09/19 03:01:54;;;;;;;10.32;9.23;;;;;;;19.94;67.09;99545.75;5029136;28;20680;-61
2023/09/19 03:04:22;;;;;;;11.52;8.20;;;;;;;19.93;67.13;99546.69;5029529;28;20218;-62
2023/09/19 03:06:51;;;;;;;9.23;8.32;;;;;;;19.88;67.13;99546.09;5024965;28;20206;-61
2023/09/19 03:09:19;;;;;;;9.63;8.32;;;;;;;19.87;67.31;99541.81;5031640;28;20246;-65
2023/09/19 03:11:48;;;;;;;9.38;8.23;;;;;;;19.85;67.58;99540.25;5028951;28;20653;-60
2023/09/19 03:14:17;;;;;;;12.25;8.68;;;;;;;19.84;67.45;99541.16;5029098;28;20222;-61
2023/09/19 03:16:45;;;;;;;9.02;8.13;;;;;;;19.82;67.56;99532.56;5026922;28;20206;-59
2023/09/19 03:19:14;;;;;;;10.35;8.45;;;;;;;19.84;67.49;99541.16;5031603;28;20205;-61
2023/09/19 03:21:43;;;;;;;10.20;8.93;;;;;;;19.84;67.31;99536.75;5026743;28;20701;-61
2023/09/19 03:24:11;;;;;;;10.05;8.50;;;;;;;19.83;67.61;99535.06;5029715;28;20618;-61
2023/09/19 03:26:39;;;;;;;9.43;8.43;;;;;;;19.82;67.59;99537.78;5027332;28;20222;-61
2023/09/19 03:29:10;;;;;;;9.20;8.20;;;;;;;19.82;67.44;99537.78;5029077;28;20299;-61
2023/09/19 03:31:38;;;;;;;11.27;8.55;;;;;;;19.79;67.37;99531.78;5026303;28;20575;-63
2023/09/19 03:34:06;;;;;;;11.27;8.77;;;;;;;19.79;67.63;99531.78;5022293;28;20302;-61
2023/09/19 03:36:34;;;;;;;8.88;7.93;;;;;;;19.85;67.67;99535.00;5021862;28;20302;-61
2023/09/19 03:39:04;;;;;;;9.07;8.18;;;;;;;19.87;67.46;99538.34;5029343;28;20206;-62
2023/09/19 03:41:33;;;;;;;11.75;8.98;;;;;;;19.88;67.48;99532.19;5026567;28;20380;-61
2023/09/19 03:44:00;;;;;;;10.90;8.88;;;;;;;19.89;67.48;99520.81;5026803;28;20213;-62
2023/09/19 03:46:32;;;;;;;9.23;8.25;;;;;;;19.90;67.16;99520.72;5029088;28;20210;-62
2023/09/19 03:49:00;;;;;;;8.95;8.05;;;;;;;19.88;66.88;99516.50;5028237;28;20234;-60
2023/09/19 03:51:28;;;;;;;9.75;8.73;;;;;;;19.89;67.13;99520.81;5023437;28;20202;-61
2023/09/19 03:53:56;;;;;;;13.43;8.90;;;;;;;19.88;67.22;99521.72;5029976;28;20691;-61
2023/09/19 03:56:24;;;;;;;9.82;8.60;;;;;;;19.87;66.94;99525.28;5029149;28;20203;-63
2023/09/19 03:58:52;;;;;;;9.07;8.02;;;;;;;19.85;67.13;99519.31;5028761;28;20230;-60
2023/09/19 04:01:20;;;;;;;9.13;8.13;;;;;;;19.85;66.91;99516.72;5029693;28;20206;-62
2023/09/19 04:03:51;;;;;;;10.05;8.45;;;;;;;19.86;66.93;99521.00;5028898;28;20210;-62
2023/09/19 04:06:19;;;;;;;9.20;8.00;;;;;;;19.85;67.00;99517.53;5025489;28;20215;-61
2023/09/19 04:08:48;;;;;;;10.05;8.32;;;;;;;19.90;67.29;99509.41;5027146;28;20217;-61
2023/09/19 04:11:16;;;;;;;8.85;7.65;;;;;;;19.92;67.10;99512.78;5031413;28;20245;-60
2023/09/19 04:13:44;;;;;;;9.27;7.97;;;;;;;19.96;66.74;99503.84;5029400;28;20206;-63
2023/09/19 04:16:12;;;;;;;13.20;8.80;;;;;;;19.98;66.63;99507.19;5028350;28;20206;-61
2023/09/19 04:18:40;;;;;;;9.43;8.18;;;;;;;19.95;66.82;99502.97;5028776;28;20676;-61
2023/09/19 04:21:09;;;;;;;9.57;8.00;;;;;;;19.91;66.63;99501.47;5029482;28;20233;-62
2023/09/19 04:23:37;;;;;;;9.98;8.75;;;;;;;19.88;66.58;99495.59;5028896;28;20646;-61
2023/09/19 04:26:06;;;;;;;9.50;8.50;;;;;;;19.85;66.95;99498.41;5028247;28;20249;-61
2023/09/19 04:28:36;;;;;;;10.15;8.30;;;;;;;19.83;67.24;99492.41;5028074;28;20729;-60
2023/09/19 04:31:04;;;;;;;9.13;8.23;;;;;;;19.82;67.14;99496.81;5027158;28;20301;-62
2023/09/19 04:33:35;;;;;;;10.35;7.95;;;;;;;19.84;67.08;99494.09;5025830;28;20723;-61
2023/09/19 04:36:05;;;;;;;11.48;8.27;;;;;;;19.84;67.26;99489.69;5029149;28;20218;-62
2023/09/19 04:38:54;;;;;;;11.18;8.13;;;;;;;19.85;67.28;99491.41;5028689;28;20218;-61
2023/09/19 04:41:23;;;;;;;11.15;8.07;;;;;;;19.84;67.14;99486.25;5029065;28;20221;-60
2023/09/19 04:43:51;;;;;;;10.35;8.18;;;;;;;19.81;67.35;99492.50;5027809;28;20668;-61
2023/09/19 04:46:20;;;;;;;14.00;8.45;;;;;;;19.81;67.42;99491.66;5027515;28;20209;-60
2023/09/19 04:48:48;;;;;;;9.85;7.82;;;;;;;19.78;67.32;99490.06;5029163;28;20202;-61
2023/09/19 04:51:16;;;;;;;8.85;7.70;;;;;;;19.77;67.61;99486.63;5028406;28;20310;-62
2023/09/19 04:53:44;;;;;;;10.40;9.35;;;;;;;19.77;67.42;99486.63;5027672;28;20215;-62
2023/09/19 04:56:13;;;;;;;10.80;9.05;;;;;;;19.81;67.45;99478.56;5026542;28;20224;-62
2023/09/19 04:58:41;;;;;;;12.60;8.15;;;;;;;19.86;67.54;99487.00;5027288;28;20744;-60
2023/09/19 05:01:12;;;;;;;11.95;8.13;;;;;;;19.92;67.46;99484.00;5021518;28;20198;-61
2023/09/19 05:03:39;;;;;;;8.52;7.63;;;;;;;19.98;67.36;99486.28;5022955;28;20658;-63
2023/09/19 05:06:08;;;;;;;8.98;8.05;;;;;;;20.02;66.91;99474.69;5024345;28;20549;-62
2023/09/19 05:08:36;;;;;;;9.30;7.82;;;;;;;20.05;66.92;99482.38;5025953;28;20743;-61
2023/09/19 05:11:05;;;;;;;9.30;8.02;;;;;;;20.08;66.82;99482.19;5027467;28;20222;-61
2023/09/19 05:13:35;;;;;;;10.32;7.63;;;;;;;20.10;66.11;99480.31;5030897;28;20233;-61
2023/09/19 05:16:03;;;;;;;10.23;7.97;;;;;;;20.13;66.62;99477.50;5032705;28;20210;-61
2023/09/19 05:18:31;;;;;;;10.02;8.60;;;;;;;20.14;66.47;99475.72;5027289;28;20220;-63
2023/09/19 05:21:02;;;;;;;10.85;7.68;;;;;;;20.14;66.26;99479.22;5037977;28;20213;-65
2023/09/19 05:23:31;;;;;;;9.48;8.00;;;;;;;20.14;66.51;99479.22;5032665;28;20642;-66
2023/09/19 05:25:59;;;;;;;12.93;8.15;;;;;;;20.14;66.30;99471.38;5032896;28;20194;-64
2023/09/19 05:28:27;;;;;;;11.30;8.77;;;;;;;20.15;66.07;99474.81;5033302;28;20237;-64
2023/09/19 05:30:57;;;;;;;9.05;7.38;;;;;;;20.12;66.00;99475.84;5029270;28;20222;-65
2023/09/19 05:33:27;;;;;;;9.50;7.82;;;;;;;20.14;66.11;99476.59;5027515;28;20878;-67
2023/09/19 05:35:56;;;;;;;9.68;7.63;;;;;;;20.13;66.27;99472.28;5031735;28;20293;-64
2023/09/19 05:38:26;;;;;;;10.00;8.07;;;;;;;20.14;66.44;99470.50;5034198;28;20708;-66
2023/09/19 05:40:54;;;;;;;15.60;8.75;;;;;;;20.18;66.20;99472.84;5030267;28;20558;-64
2023/09/19 05:43:22;;;;;;;10.52;8.63;;;;;;;20.20;66.15;99476.22;5031227;28;20202;-65
2023/09/19 05:45:56;;;;;;;10.75;8.38;;;;;;;20.19;66.35;99466.69;5033916;28;20296;-64
2023/09/19 05:48:26;;;;;;;9.75;7.57;;;;;;;20.21;66.14;99470.06;5026695;28;20213;-66
2023/09/19 05:50:54;;;;;;;11.75;8.70;;;;;;;20.23;66.09;99465.56;5026988;28;20235;-66
2023/09/19 05:53:23;;;;;;;11.13;7.72;;;;;;;20.26;65.79;99460.16;5034039;28;20232;-64
2023/09/19 05:55:52;;;;;;;11.23;7.60;;;;;;;20.30;65.56;99458.19;5025507;28;20657;-66
2023/09/19 05:58:20;;;;;;;10.32;7.97;;;;;;;20.33;65.84;99460.63;5027614;28;20675;-65
2023/09/19 06:00:49;;;;;;;11.80;8.35;;;;;;;20.38;65.53;99455.09;5027895;28;20213;-66
2023/09/19 06:03:18;;;;;;;11.90;8.30;;;;;;;20.43;65.41;99455.66;5035238;28;20417;-66
2023/09/19 06:05:49;;;;;;;11.88;7.53;;;;;;;20.52;65.17;99472.59;5024294;28;20670;-64
2023/09/19 06:08:17;;;;;;;10.15;7.90;;;;;;;20.51;64.93;99474.38;5034078;28;20258;-65
2023/09/19 06:10:46;;;;;;;16.13;7.90;;;;;;;20.52;65.09;99481.28;5031922;28;20393;-65
2023/09/19 06:13:15;;;;;;;15.43;8.07;;;;;;;20.53;65.14;99493.44;5033689;28;20657;-64
2023/09/19 06:15:47;;;;;;;12.20;8.07;;;;;;;20.52;64.63;99491.75;5033460;28;20198;-63
2023/09/19 06:18:19;;;;;;;9.15;8.15;;;;;;;20.47;65.32;99504.25;5031964;28;20203;-65
2023/09/19 06:20:50;;;;;;;11.90;7.93;;;;;;;20.47;65.65;99505.09;5031780;28;20223;-64
2023/09/19 06:23:19;;;;;;;12.35;8.02;;;;;;;20.48;65.16;99500.72;5031840;28;20202;-63
2023/09/19 06:25:48;;;;;;;9.18;8.25;;;;;;;20.47;64.97;99504.25;5029997;28;20210;-63
2023/09/19 06:28:23;;;;;;;14.43;8.20;;;;;;;20.39;65.36;99509.09;5028838;28;20207;-62
2023/09/19 06:30:51;;;;;;;9.88;7.65;;;;;;;20.33;65.87;99501.66;5022096;28;20215;-63
2023/09/19 06:33:21;;;;;;;11.02;8.75;;;;;;;20.28;65.81;99499.28;5031604;28;20214;-63
2023/09/19 06:35:52;;;;;;;12.82;8.32;;;;;;;20.31;65.85;99503.50;5034800;28;20285;-63
2023/09/19 06:38:20;;;;;;;10.00;8.20;;;;;;;20.37;66.43;99508.38;5036209;28;20661;-65
2023/09/19 06:40:48;;;;;;;14.07;8.35;;;;;;;20.51;65.96;99503.19;5031111;28;20263;-62
2023/09/19 06:43:16;;;;;;;11.90;8.15;;;;;;;20.63;65.88;99499.78;5037038;28;20207;-63
2023/09/19 06:45:46;;;;;;;8.73;7.75;;;;;;;20.90;65.09;99505.09;5036777;28;20214;-62
2023/09/19 06:48:15;;;;;;;15.68;8.50;;;;;;;21.16;63.98;99511.28;5031949;28;20230;-61
2023/09/19 06:50:44;;;;;;;11.80;8.10;;;;;;;21.31;63.27;99506.84;5026622;28;20211;-64
2023/09/19 06:53:13;;;;;;;10.77;7.60;;;;;;;21.40;62.48;99513.31;5022697;28;20210;-67
2023/09/19 06:55:43;;;;;;;10.48;7.97;;;;;;;21.49;62.47;99510.09;5032212;28;20202;-66
2023/09/19 06:58:12;;;;;;;15.60;8.68;;;;;;;21.64;61.94;99510.88;5026337;28;20245;-67
2023/09/19 07:00:40;;;;;;;10.63;8.55;;;;;;;21.78;61.76;99507.34;5028474;28;20198;-65
2023/09/19 07:03:11;;;;;;;10.70;8.07;;;;;;;21.89;60.98;99515.31;5027025;28;20278;-64
2023/09/19 07:05:42;;;;;;;9.50;8.02;;;;;;;22.02;60.53;99513.56;5036171;28;20665;-65
2023/09/19 07:08:12;;;;;;;12.88;8.35;;;;;;;22.10;59.88;99513.88;5031367;28;20209;-64
2023/09/19 07:10:44;;;;;;;12.57;8.40;;;;;;;22.12;59.40;99517.22;5032899;28;20219;-66
2023/09/19 07:13:13;;;;;;;14.30;8.65;;;;;;;22.16;59.25;99516.09;5030156;28;20211;-66
2023/09/19 07:15:46;;;;;;;9.20;8.30;;;;;;;22.15;58.78;99522.31;5038240;28;20305;-64
2023/09/19 07:18:16;;;;;;;10.38;8.13;;;;;;;22.25;59.34;99524.31;5023973;28;20213;-63
2023/09/19 07:20:49;;;;;;;11.43;8.23;;;;;;;22.46;59.05;99522.84;5035557;28;20202;-64
2023/09/19 07:23:18;;;;;;;9.50;8.00;;;;;;;22.49;57.89;99524.41;5027494;28;20213;-65
2023/09/19 07:25:48;;;;;;;10.35;8.93;;;;;;;22.45;57.92;99521.16;5032805;28;20233;-65
2023/09/19 07:28:21;;;;;;;9.25;8.32;;;;;;;22.37;57.98;99531.34;5030941;28;20209;-64
2023/09/19 07:30:49;;;;;;;12.57;9.68;;;;;;;22.19;58.22;99534.28;5033262;28;20849;-67
2023/09/19 07:33:17;;;;;;;12.23;8.85;;;;;;;21.97;59.02;99541.88;5032801;28;20222;-66
2023/09/19 07:35:49;;;;;;;13.43;9.77;;;;;;;21.83;59.84;99534.09;5037052;28;20257;-61
2023/09/19 07:38:17;;;;;;;13.75;9.85;;;;;;;21.80;60.25;99550.88;5029617;28;20669;-65
2023/09/19 07:40:47;;;;;;;11.27;9.65;;;;;;;21.79;60.42;99549.19;5027250;28;20226;-65
2023/09/19 07:43:15;;;;;;;12.00;9.80;;;;;;;21.82;60.73;99550.78;5028070;28;20687;-63
2023/09/19 07:45:42;;;;;;;14.20;9.88;;;;;;;21.88;60.70;99545.97;5033486;28;20207;-64
2023/09/19 07:48:14;;;;;;;10.45;9.45;;;;;;;21.96;60.29;99555.94;5029140;28;20655;-63
2023/09/19 07:50:44;;;;;;;11.23;9.98;;;;;;;21.99;60.21;99554.91;5027875;28;20225;-65
2023/09/19 07:53:13;;;;;;;12.35;11.13;;;;;;;21.95;60.02;99560.34;5028367;28;20232;-65
2023/09/19 07:55:42;;;;;;;11.57;10.32;;;;;;;21.84;60.49;99564.63;5029313;28;20203;-62
2023/09/19 07:58:13;;;;;;;10.98;9.43;;;;;;;21.78;60.86;99562.41;5029220;28;20713;-64
2023/09/19 08:00:41;;;;;;;12.63;9.82;;;;;;;21.69;61.12;99554.22;5025912;28;20206;-69
2023/09/19 08:03:14;;;;;;;16.80;10.60;;;;;;;21.71;61.45;99561.97;5030409;28;20214;-70
2023/09/19 08:05:45;;;;;;;13.07;10.30;;;;;;;21.70;61.45;99566.38;5028401;28;20198;-66
2023/09/19 08:08:14;;;;;;;13.00;10.88;;;;;;;21.61;61.43;99569.56;5027022;28;20554;-68
2023/09/19 08:10:45;;;;;;;11.73;10.27;;;;;;;21.46;62.20;99567.94;5023810;28;20213;-68
2023/09/19 08:13:18;;;;;;;11.90;10.68;;;;;;;21.46;62.60;99575.81;5029739;28;20215;-69
2023/09/19 08:15:46;;;;;;;15.07;11.02;;;;;;;21.50;62.80;99574.66;5032578;28;20211;-72
2023/09/19 08:18:15;;;;;;;11.25;10.07;;;;;;;21.63;62.67;99575.56;5024225;28;20202;-62
2023/09/19 08:20:46;;;;;;;13.82;10.57;;;;;;;21.68;62.55;99583.97;5027779;28;20299;-66
2023/09/19 08:23:14;;;;;;;12.23;10.50;;;;;;;21.68;62.20;99577.88;5028598;28;20199;-63
2023/09/19 08:25:42;;;;;;;11.88;10.32;;;;;;;21.66;62.27;99580.63;5030789;28;20711;-63
2023/09/19 08:28:12;;;;;;;11.48;10.05;;;;;;;21.63;62.38;99583.44;5033632;28;20218;-63
2023/09/19 08:30:41;;;;;;;11.90;10.70;;;;;;;21.60;62.72;99583.63;5027195;28;20701;-65
2023/09/19 08:33:10;;;;;;;13.00;10.52;;;;;;;21.61;63.08;99587.94;5027559;28;20214;-65
2023/09/19 08:35:41;;;;;;;11.20;10.00;;;;;;;21.63;62.90;99583.44;5025880;28;20766;-68
2023/09/19 08:38:10;;;;;;;11.07;9.00;;;;;;;21.63;62.88;99590.47;5030920;28;21171;-68
2023/09/19 08:40:39;;;;;;;11.40;9.27;;;;;;;21.63;62.63;99596.56;5027073;28;20214;-63
2023/09/19 08:43:08;;;;;;;9.30;8.27;;;;;;;21.58;63.05;99584.69;5027004;28;20229;-63
2023/09/19 08:45:37;;;;;;;10.75;9.05;;;;;;;21.55;63.19;99588.34;5030606;28;20625;-62
2023/09/19 08:48:18;;;;;;;9.05;8.05;;;;;;;21.53;63.37;99595.44;5023162;28;20615;-64
2023/09/19 08:50:50;;;;;;;9.30;8.40;;;;;;;21.51;63.57;99584.25;5029306;28;20206;-64
2023/09/19 08:53:27;;;;;;;9.98;8.77;;;;;;;21.44;63.38;99588.19;5033033;28;20211;-64
2023/09/19 08:55:57;;;;;;;9.40;8.43;;;;;;;21.37;63.84;99579.88;5028735;28;20206;-62
2023/09/19 08:58:31;;;;;;;11.93;8.45;;;;;;;21.36;64.20;99593.94;5032121;28;20321;-68
2023/09/19 09:01:01;;;;;;;9.73;8.50;;;;;;;21.34;64.14;99589.72;5029300;28;20210;-64
2023/09/19 09:03:34;;;;;;;8.82;7.72;;;;;;;21.28;64.15;99582.19;5031965;28;20198;-66
2023/09/19 09:06:03;;;;;;;10.00;8.55;;;;;;;21.15;65.23;99585.59;5031220;28;20217;-66
2023/09/19 09:08:32;;;;;;;9.43;7.70;;;;;;;21.11;65.70;99588.50;5033054;28;20205;-64
2023/09/19 09:11:01;;;;;;;8.13;7.30;;;;;;;21.11;65.75;99586.72;5037966;28;20567;-66
2023/09/19 09:13:30;;;;;;;7.97;6.82;;;;;;;21.10;65.75;99587.66;5033802;28;20230;-67
2023/09/19 09:15:59;;;;;;;9.20;7.85;;;;;;;21.09;65.87;99600.84;5026329;28;20215;-69
2023/09/19 09:18:27;;;;;;;10.10;7.53;;;;;;;21.00;66.50;99604.88;5029430;28;20634;-68
2023/09/19 09:20:57;;;;;;;11.20;7.03;;;;;;;20.94;66.73;99602.63;5028302;28;20608;-66
2023/09/19 09:23:25;;;;;;;9.50;7.70;;;;;;;20.89;66.95;99612.56;5031506;28;21223;-67
2023/09/19 09:25:59;;;;;;;11.32;7.00;;;;;;;20.85;67.40;99634.63;5025352;28;20218;-68
2023/09/19 09:28:28;;;;;;;8.43;6.43;;;;;;;20.77;67.97;99631.63;5029480;28;20728;-66
2023/09/19 09:30:57;;;;;;;7.28;6.53;;;;;;;20.73;68.45;99636.22;5030517;28;20199;-67
2023/09/19 09:33:27;;;;;;;6.43;5.82;;;;;;;20.65;69.00;99639.28;5031881;28;20302;-68
2023/09/19 09:36:00;;;;;;;9.88;6.78;;;;;;;20.52;69.90;99629.66;5019099;28;20264;-63
2023/09/19 09:38:32;;;;;;;9.48;6.30;;;;;;;20.38;71.76;99638.28;5029811;28;20289;-66
2023/09/19 09:41:06;;;;;;;12.73;7.03;;;;;;;20.28;72.98;99651.88;5039067;28;20226;-64
2023/09/19 09:43:36;;;;;;;10.43;6.95;;;;;;;20.17;74.23;99653.44;5032251;28;20648;-67
2023/09/19 09:46:58;;;;;;;10.00;7.22;;;;;;;20.12;74.92;99652.88;5025791;28;20330;-65
2023/09/19 09:49:18;;;;;;;9.13;7.32;;;;;;;20.08;75.81;99660.03;5027166;28;20658;-62
2023/09/19 09:51:59;;;;;;;9.75;7.25;;;;;;;20.03;76.57;99646.41;5024119;28;20703;-67
2023/09/19 09:54:34;;;;;;;11.20;7.18;;;;;;;19.96;77.27;99655.50;5022724;28;20246;-65
2023/09/19 09:57:13;;;;;;;11.48;8.45;;;;;;;19.85;77.90;99657.91;5029179;28;20241;-66
2023/09/19 09:59:49;;;;;;;15.10;8.90;;;;;;;19.77;78.72;99664.38;5024276;28;20661;-66
2023/09/19 10:02:28;;;;;;;9.60;8.55;;;;;;;19.73;79.44;99660.22;5030906;28;20210;-66
2023/09/19 10:05:09;;;;;;;12.73;7.68;;;;;;;19.70;80.07;99664.78;5031164;28;20233;-65
2023/09/19 10:07:42;;;;;;;10.02;7.68;;;;;;;19.69;80.15;99660.50;5030148;28;20250;-63
2023/09/19 10:10:15;;;;;;;10.40;8.43;;;;;;;19.71;80.57;99661.28;5026963;28;20612;-66
2023/09/19 10:12:51;;;;;;;10.32;8.20;;;;;;;19.70;80.29;99670.00;5029098;28;20549;-66
2023/09/19 10:15:21;;;;;;;9.40;7.40;;;;;;;19.65;80.31;99667.66;5037787;28;20373;-65
2023/09/19 10:17:49;;;;;;;11.10;7.75;;;;;;;19.62;80.61;99667.81;5036751;28;20202;-64
2023/09/19 10:23:12;;;;;;;7.68;6.88;;;;;;;19.75;80.84;99679.31;5021615;28;20203;-64
2023/09/19 10:25:42;;;;;;;10.93;6.38;;;;;;;19.85;80.22;99684.03;5029635;28;20213;-64
2023/09/19 10:28:13;;;;;;;8.23;6.35;;;;;;;19.96;79.74;99689.50;5023801;28;20206;-64
2023/09/19 10:30:43;;;;;;;7.47;5.75;;;;;;;19.99;78.86;99686.69;5028357;28;20222;-65
2023/09/19 10:33:13;;;;;;;7.60;6.18;;;;;;;20.00;78.91;99684.03;5027559;28;20219;-64
2023/09/19 10:35:44;;;;;;;7.72;6.50;;;;;;;20.08;79.51;99686.19;5030416;28;20214;-64
2023/09/19 10:38:15;;;;;;;7.30;6.40;;;;;;;20.10;78.61;99680.88;5031096;28;20210;-64
2023/09/19 10:40:50;;;;;;;7.53;5.50;;;;;;;20.16;78.65;99678.75;5032191;28;20233;-63
2023/09/19 10:43:20;;;;;;;7.07;5.90;;;;;;;20.22;78.86;99674.97;5035708;28;20676;-65
2023/09/19 10:45:52;;;;;;;5.97;5.38;;;;;;;20.23;77.97;99671.41;5031862;28;20626;-64
2023/09/19 10:48:25;;;;;;;6.85;6.15;;;;;;;20.25;77.10;99675.63;5032662;28;20226;-64
2023/09/19 10:51:04;;;;;;;7.82;7.10;;;;;;;20.21;76.80;99671.50;5033721;28;20612;-64
2023/09/19 10:53:45;;;;;;;10.13;6.43;;;;;;;20.18;77.84;99665.59;5030560;28;20223;-64
2023/09/19 10:56:20;;;;;;;11.35;7.18;;;;;;;20.19;78.61;99675.97;5029979;28;20593;-63
2023/09/19 10:58:49;;;;;;;10.18;6.80;;;;;;;20.21;78.64;99683.72;5027561;28;20265;-65
2023/09/19 11:01:18;;;;;;;6.93;5.78;;;;;;;20.22;78.58;99685.41;5028107;28;20207;-64
2023/09/19 11:03:53;;;;;;;6.90;5.93;;;;;;;20.15;78.35;99682.31;5025516;28;20226;-64
2023/09/19 11:06:22;;;;;;;6.60;5.82;;;;;;;20.13;79.13;99683.31;5027495;28;20214;-65
2023/09/19 11:08:56;;;;;;;7.28;5.50;;;;;;;20.10;79.39;99681.69;5031562;28;20298;-64
2023/09/19 11:11:46;;;;;;;5.68;5.00;;;;;;;20.12;79.13;99679.84;5019949;28;20613;-64
2023/09/19 11:14:30;;;;;;;8.63;4.78;;;;;;;20.15;78.97;99684.91;5029030;28;20210;-63
2023/09/19 11:17:46;;;;;;;6.78;4.88;;;;;;;20.20;78.82;99685.50;5030700;28;20220;-63
2023/09/19 11:20:39;;;;;;;8.18;5.05;;;;;;;20.25;78.82;99693.94;5031834;28;20242;-65
2023/09/19 11:23:17;;;;;;;8.30;4.82;;;;;;;20.28;78.91;99690.28;5031857;28;20237;-63
2023/09/19 11:25:51;;;;;;;5.63;5.07;;;;;;;20.33;79.04;99690.03;5029959;28;20198;-64
2023/09/19 11:28:38;;;;;;;6.82;4.90;;;;;;;20.38;79.18;99688.00;5030615;28;20203;-64
2023/09/19 11:31:55;;;;;;;8.10;4.55;;;;;;;20.43;78.94;99691.19;5018003;28;20210;-66
2023/09/19 11:34:50;;;;;;;4.63;4.22;;;;;;;20.47;78.08;99690.06;5031848;28;20689;-66
2023/09/19 11:38:10;;;;;;;6.20;4.18;;;;;;;20.44;77.78;99696.34;5028880;28;20696;-66
2023/09/19 11:40:39;;;;;;;4.90;4.13;;;;;;;20.39;77.50;99695.75;5030089;28;20238;-66
2023/09/19 11:43:39;;;;;;;5.15;4.30;;;;;;;20.36;77.75;99695.94;5032492;28;20555;-66
2023/09/19 11:46:08;;;;;;;6.65;4.47;;;;;;;20.34;77.82;99694.34;5031720;28;20210;-65
2023/09/19 11:48:40;;;;;;;6.20;5.05;;;;;;;20.32;77.37;99702.25;5044522;28;20213;-66
2023/09/19 11:51:23;;;;;;;7.22;4.80;;;;;;;20.27;77.29;99710.38;5032323;28;20760;-69
2023/09/19 11:53:52;;;;;;;5.88;4.97;;;;;;;20.22;77.70;99699.34;5028326;28;20242;-65